createdAt,value
2018-09-29T00:00:12.300Z,13.11
2018-09-29T00:00:38.470Z,13.12
2018-09-29T00:01:04.635Z,13
2018-09-29T00:01:30.811Z,13.08
2018-09-29T00:01:56.940Z,13.09
2018-09-29T00:02:23.074Z,13.11
2018-09-29T00:02:49.205Z,13.04
2018-09-29T00:03:15.408Z,13
2018-09-29T00:03:41.483Z,13.01
2018-09-29T00:04:07.639Z,13.08
2018-09-29T00:04:33.770Z,13.01
2018-09-29T00:04:59.959Z,13
2018-09-29T00:05:26.091Z,13
2018-09-29T00:05:52.242Z,12.98
2018-09-29T00:06:18.385Z,13.05
2018-09-29T00:06:44.542Z,13.04
2018-09-29T00:07:10.670Z,13.05
2018-09-29T00:07:36.803Z,13.08
2018-09-29T00:08:02.939Z,13.05
2018-09-29T00:08:29.071Z,13.12
2018-09-29T00:08:55.200Z,13
2018-09-29T00:09:21.328Z,12.97
2018-09-29T00:09:47.461Z,13.05
2018-09-29T00:10:13.676Z,13.01
2018-09-29T00:10:39.767Z,12.97
2018-09-29T00:11:05.903Z,12.95
2018-09-29T00:11:32.082Z,12.95
2018-09-29T00:11:58.223Z,12.97
2018-09-29T00:12:24.369Z,12.97
2018-09-29T00:12:50.499Z,12.97
2018-09-29T00:13:16.651Z,13
2018-09-29T00:13:42.789Z,12.98
2018-09-29T00:14:08.920Z,12.98
2018-09-29T00:14:35.056Z,13.04
2018-09-29T00:15:01.197Z,12.95
2018-09-29T00:15:27.317Z,13
2018-09-29T00:15:53.446Z,12.97
2018-09-29T00:16:19.595Z,13
2018-09-29T00:16:45.714Z,13.01
2018-09-29T00:17:11.838Z,12.94
2018-09-29T00:17:37.969Z,12.91
2018-09-29T00:18:04.142Z,12.97
2018-09-29T00:18:30.277Z,13
2018-09-29T00:18:56.409Z,12.95
2018-09-29T00:19:22.566Z,12.95
2018-09-29T00:19:48.690Z,12.97
2018-09-29T00:20:14.823Z,12.98
2018-09-29T00:20:40.960Z,12.97
2018-09-29T00:21:07.088Z,12.97
2018-09-29T00:21:33.218Z,12.98
2018-09-29T00:21:59.356Z,13.01
2018-09-29T00:22:25.507Z,12.93
2018-09-29T00:22:51.643Z,12.91
2018-09-29T00:23:17.775Z,12.94
2018-09-29T00:23:43.928Z,12.95
2018-09-29T00:24:10.062Z,12.94
2018-09-29T00:24:36.214Z,12.94
2018-09-29T00:25:02.388Z,12.97
2018-09-29T00:25:28.522Z,13.01
2018-09-29T00:25:54.664Z,12.94
2018-09-29T00:26:20.793Z,12.87
2018-09-29T00:26:46.944Z,12.86
2018-09-29T00:27:13.078Z,12.87
2018-09-29T00:27:39.235Z,12.87
2018-09-29T00:28:05.388Z,12.82
2018-09-29T00:28:31.520Z,12.85
2018-09-29T00:28:57.649Z,12.91
2018-09-29T00:29:23.811Z,12.85
2018-09-29T00:29:49.941Z,12.86
2018-09-29T00:30:16.072Z,12.91
2018-09-29T00:30:42.210Z,12.94
2018-09-29T00:31:08.343Z,12.91
2018-09-29T00:31:34.491Z,12.94
2018-09-29T00:32:00.643Z,12.97
2018-09-29T00:32:26.773Z,12.85
2018-09-29T00:32:52.903Z,12.86
2018-09-29T00:33:19.039Z,12.91
2018-09-29T00:33:45.169Z,12.93
2018-09-29T00:34:11.302Z,12.93
2018-09-29T00:34:37.430Z,12.82
2018-09-29T00:35:03.562Z,12.95
2018-09-29T00:35:29.694Z,12.93
2018-09-29T00:35:55.848Z,12.94
2018-09-29T00:36:21.979Z,12.93
2018-09-29T00:36:48.109Z,12.91
2018-09-29T00:37:14.236Z,12.87
2018-09-29T00:37:40.401Z,12.86
2018-09-29T00:38:06.533Z,12.86
2018-09-29T00:38:32.661Z,12.86
2018-09-29T00:38:58.815Z,12.82
2018-09-29T00:39:24.946Z,12.86
2018-09-29T00:39:51.100Z,12.82
2018-09-29T00:40:17.257Z,12.85
2018-09-29T00:40:43.387Z,12.83
2018-09-29T00:41:09.547Z,12.79
2018-09-29T00:41:35.680Z,12.68
2018-09-29T00:42:01.811Z,12.79
2018-09-29T00:42:27.942Z,12.82
2018-09-29T00:42:54.097Z,12.82
2018-09-29T00:43:20.229Z,12.8
2018-09-29T00:43:46.367Z,12.83
2018-09-29T00:44:12.493Z,12.83
2018-09-29T00:44:38.624Z,12.82
2018-09-29T00:45:04.758Z,12.8
2018-09-29T00:45:30.890Z,12.75
2018-09-29T00:45:57.026Z,12.67
2018-09-29T00:46:23.159Z,12.61
2018-09-29T00:46:49.276Z,12.65
2018-09-29T00:47:15.410Z,12.75
2018-09-29T00:47:41.545Z,12.7
2018-09-29T00:48:07.671Z,12.78
2018-09-29T00:48:33.808Z,12.68
2018-09-29T00:48:59.934Z,12.73
2018-09-29T00:49:26.064Z,12.67
2018-09-29T00:49:52.193Z,12.65
2018-09-29T00:50:18.324Z,12.7
2018-09-29T00:50:44.485Z,12.73
2018-09-29T00:51:10.617Z,12.75
2018-09-29T00:51:36.742Z,12.7
2018-09-29T00:52:02.874Z,12.61
2018-09-29T00:52:29.014Z,12.65
2018-09-29T00:52:55.148Z,12.68
2018-09-29T00:53:21.302Z,12.73
2018-09-29T00:53:47.440Z,12.58
2018-09-29T00:54:13.572Z,12.65
2018-09-29T00:54:39.724Z,12.7
2018-09-29T00:55:05.857Z,12.58
2018-09-29T00:55:31.987Z,12.67
2018-09-29T00:55:58.116Z,12.62
2018-09-29T00:56:24.251Z,12.67
2018-09-29T00:56:50.385Z,12.65
2018-09-29T00:57:16.538Z,12.7
2018-09-29T00:57:42.665Z,12.75
2018-09-29T00:58:08.819Z,12.73
2018-09-29T00:58:34.981Z,12.64
2018-09-29T00:59:01.138Z,12.72
2018-09-29T00:59:27.276Z,12.55
2018-09-29T00:59:53.398Z,12.58
2018-09-29T01:00:19.532Z,12.58
2018-09-29T01:00:45.669Z,12.62
2018-09-29T01:01:11.794Z,12.73
2018-09-29T01:01:37.931Z,12.55
2018-09-29T01:02:04.060Z,12.65
2018-09-29T01:02:30.196Z,12.72
2018-09-29T01:02:56.328Z,12.67
2018-09-29T01:03:22.477Z,12.61
2018-09-29T01:03:48.664Z,12.67
2018-09-29T01:04:14.792Z,12.61
2018-09-29T01:04:40.949Z,12.68
2018-09-29T01:05:07.096Z,12.62
2018-09-29T01:05:33.229Z,12.55
2018-09-29T01:05:59.379Z,12.53
2018-09-29T01:06:25.515Z,12.6
2018-09-29T01:06:51.676Z,12.68
2018-09-29T01:07:17.806Z,12.61
2018-09-29T01:07:43.929Z,12.58
2018-09-29T01:08:10.066Z,12.62
2018-09-29T01:08:36.194Z,12.64
2018-09-29T01:09:02.341Z,12.64
2018-09-29T01:09:28.478Z,12.7
2018-09-29T01:09:54.605Z,12.68
2018-09-29T01:10:20.736Z,12.6
2018-09-29T01:10:46.868Z,12.58
2018-09-29T01:11:13.001Z,12.68
2018-09-29T01:11:39.152Z,12.62
2018-09-29T01:12:05.296Z,12.73
2018-09-29T01:12:31.464Z,12.67
2018-09-29T01:12:57.626Z,12.68
2018-09-29T01:13:23.752Z,12.65
2018-09-29T01:13:49.884Z,12.65
2018-09-29T01:14:16.016Z,12.67
2018-09-29T01:14:42.154Z,12.58
2018-09-29T01:15:08.282Z,12.68
2018-09-29T01:15:34.417Z,12.7
2018-09-29T01:16:00.574Z,12.57
2018-09-29T01:16:26.707Z,12.65
2018-09-29T01:16:52.868Z,12.65
2018-09-29T01:17:19.014Z,12.64
2018-09-29T01:17:45.149Z,12.68
2018-09-29T01:18:11.282Z,12.67
2018-09-29T01:18:37.415Z,12.62
2018-09-29T01:19:03.542Z,12.62
2018-09-29T01:19:29.680Z,12.62
2018-09-29T01:19:55.829Z,12.67
2018-09-29T01:20:21.966Z,12.65
2018-09-29T01:20:48.098Z,12.64
2018-09-29T01:21:14.231Z,12.58
2018-09-29T01:21:40.388Z,12.5
2018-09-29T01:22:06.522Z,12.55
2018-09-29T01:22:32.654Z,12.53
2018-09-29T01:22:58.809Z,12.62
2018-09-29T01:23:24.940Z,12.47
2018-09-29T01:23:51.118Z,12.49
2018-09-29T01:24:17.273Z,12.6
2018-09-29T01:24:43.414Z,12.58
2018-09-29T01:25:09.536Z,12.61
2018-09-29T01:25:35.672Z,12.49
2018-09-29T01:26:01.792Z,12.55
2018-09-29T01:26:27.928Z,12.53
2018-09-29T01:26:54.061Z,12.45
2018-09-29T01:27:20.197Z,12.45
2018-09-29T01:27:46.333Z,12.5
2018-09-29T01:28:12.463Z,12.47
2018-09-29T01:28:38.594Z,12.42
2018-09-29T01:29:04.745Z,12.37
2018-09-29T01:29:30.925Z,12.25
2018-09-29T01:29:57.060Z,12.2
2018-09-29T01:30:23.229Z,12.21
2018-09-29T01:30:49.357Z,12.17
2018-09-29T01:31:15.494Z,12.25
2018-09-29T01:31:41.650Z,12.22
2018-09-29T01:32:07.795Z,12.2
2018-09-29T01:32:33.934Z,12.27
2018-09-29T01:33:00.097Z,12.25
2018-09-29T01:33:26.232Z,12.4
2018-09-29T01:33:52.396Z,12.32
2018-09-29T01:34:18.563Z,12.35
2018-09-29T01:34:44.756Z,12.37
2018-09-29T01:35:10.922Z,12.39
2018-09-29T01:35:37.052Z,12.35
2018-09-29T01:36:03.275Z,12.27
2018-09-29T01:36:29.409Z,12.36
2018-09-29T01:36:55.681Z,12.32
2018-09-29T01:37:21.908Z,12.35
2018-09-29T01:37:48.072Z,12.36
2018-09-29T01:38:14.236Z,12.35
2018-09-29T01:38:40.389Z,12.35
2018-09-29T01:39:06.611Z,12.4
2018-09-29T01:39:32.749Z,12.4
2018-09-29T01:39:58.933Z,12.45
2018-09-29T01:40:25.108Z,12.42
2018-09-29T01:40:51.257Z,12.39
2018-09-29T01:41:17.521Z,12.43
2018-09-29T01:41:43.681Z,12.36
2018-09-29T01:42:09.836Z,12.42
2018-09-29T01:42:35.954Z,12.47
2018-09-29T01:43:02.170Z,12.42
2018-09-29T01:43:28.312Z,12.43
2018-09-29T01:43:54.499Z,12.43
2018-09-29T01:44:20.770Z,12.46
2018-09-29T01:44:46.861Z,12.46
2018-09-29T01:45:12.993Z,12.4
2018-09-29T01:45:39.173Z,12.37
2018-09-29T01:46:05.335Z,12.36
2018-09-29T01:46:31.621Z,12.37
2018-09-29T01:46:57.745Z,12.39
2018-09-29T01:47:24.010Z,12.35
2018-09-29T01:47:50.144Z,12.36
2018-09-29T01:48:16.368Z,12.43
2018-09-29T01:48:42.837Z,12.42
2018-09-29T01:49:08.994Z,12.31
2018-09-29T01:49:35.109Z,12.37
2018-09-29T01:50:01.263Z,12.42
2018-09-29T01:50:27.458Z,12.43
2018-09-29T01:50:53.628Z,12.37
2018-09-29T01:51:19.756Z,12.31
2018-09-29T01:51:45.928Z,12.35
2018-09-29T01:52:12.114Z,12.36
2018-09-29T01:52:38.239Z,12.42
2018-09-29T01:53:04.393Z,12.36
2018-09-29T01:53:30.550Z,12.46
2018-09-29T01:53:56.753Z,12.35
2018-09-29T01:54:22.901Z,12.4
2018-09-29T01:54:49.335Z,12.35
2018-09-29T01:55:15.527Z,12.35
2018-09-29T01:55:41.647Z,12.36
2018-09-29T01:56:07.785Z,12.37
2018-09-29T01:56:33.999Z,12.37
2018-09-29T01:57:00.142Z,12.32
2018-09-29T01:57:26.294Z,12.39
2018-09-29T01:57:52.504Z,12.36
2018-09-29T01:58:18.653Z,12.37
2018-09-29T01:58:44.798Z,12.37
2018-09-29T01:59:10.985Z,12.39
2018-09-29T01:59:37.096Z,12.35
2018-09-29T02:00:03.233Z,12.32
2018-09-29T02:00:29.385Z,12.27
2018-09-29T02:00:55.569Z,12.31
2018-09-29T02:01:21.700Z,12.24
2018-09-29T02:01:47.874Z,12.18
2018-09-29T02:02:14.054Z,12.12
2018-09-29T02:02:40.263Z,12.28
2018-09-29T02:03:06.410Z,12.24
2018-09-29T02:03:32.667Z,12.24
2018-09-29T02:03:58.774Z,12.27
2018-09-29T02:04:24.907Z,12.24
2018-09-29T02:04:51.063Z,12.24
2018-09-29T02:05:17.223Z,12.18
2018-09-29T02:05:43.370Z,12.24
2018-09-29T02:06:09.526Z,12.27
2018-09-29T02:06:35.713Z,12.32
2018-09-29T02:07:01.839Z,12.17
2018-09-29T02:07:27.974Z,12.25
2018-09-29T02:07:54.170Z,12.24
2018-09-29T02:08:20.259Z,12.31
2018-09-29T02:08:46.419Z,12.2
2018-09-29T02:09:12.599Z,12.28
2018-09-29T02:09:38.762Z,12.32
2018-09-29T02:10:04.930Z,12.24
2018-09-29T02:10:31.086Z,12.31
2018-09-29T02:10:57.356Z,12.29
2018-09-29T02:11:23.441Z,12.25
2018-09-29T02:11:49.585Z,12.24
2018-09-29T02:12:15.743Z,12.22
2018-09-29T02:12:41.894Z,12.15
2018-09-29T02:13:08.046Z,12.13
2018-09-29T02:13:34.190Z,12.17
2018-09-29T02:14:00.348Z,12.09
2018-09-29T02:14:26.471Z,12.04
2018-09-29T02:14:52.804Z,12.1
2018-09-29T02:15:18.937Z,12.12
2018-09-29T02:15:45.062Z,12.1
2018-09-29T02:16:11.223Z,12.04
2018-09-29T02:16:37.372Z,12.06
2018-09-29T02:17:03.493Z,12.1
2018-09-29T02:17:29.652Z,12.09
2018-09-29T02:17:55.779Z,12.1
2018-09-29T02:18:21.910Z,12.15
2018-09-29T02:18:48.047Z,12.1
2018-09-29T02:19:14.174Z,12.12
2018-09-29T02:19:40.329Z,12.04
2018-09-29T02:20:06.490Z,12.02
2018-09-29T02:20:32.613Z,11.95
2018-09-29T02:20:58.738Z,12.15
2018-09-29T02:21:24.875Z,12.02
2018-09-29T02:21:51.026Z,11.95
2018-09-29T02:22:17.158Z,11.91
2018-09-29T02:22:43.293Z,11.95
2018-09-29T02:23:09.421Z,12.09
2018-09-29T02:23:35.551Z,11.94
2018-09-29T02:24:01.707Z,12.03
2018-09-29T02:24:27.840Z,12.1
2018-09-29T02:24:53.970Z,12.1
2018-09-29T02:25:20.115Z,12.09
2018-09-29T02:25:46.251Z,12.04
2018-09-29T02:26:12.437Z,12.1
2018-09-29T02:26:38.588Z,12.04
2018-09-29T02:27:04.722Z,11.95
2018-09-29T02:27:30.855Z,11.87
2018-09-29T02:27:56.989Z,11.9
2018-09-29T02:28:23.118Z,11.83
2018-09-29T02:28:49.306Z,11.81
2018-09-29T02:29:15.440Z,11.86
2018-09-29T02:29:41.593Z,11.91
2018-09-29T02:30:07.725Z,11.88
2018-09-29T02:30:33.931Z,11.83
2018-09-29T02:31:00.120Z,11.84
2018-09-29T02:31:26.259Z,11.9
2018-09-29T02:31:52.465Z,11.86
2018-09-29T02:32:18.623Z,11.84
2018-09-29T02:32:44.818Z,11.87
2018-09-29T02:33:10.989Z,11.86
2018-09-29T02:33:37.143Z,11.86
2018-09-29T02:34:03.270Z,11.94
2018-09-29T02:34:29.405Z,11.94
2018-09-29T02:34:55.531Z,11.9
2018-09-29T02:35:21.695Z,11.88
2018-09-29T02:35:47.845Z,11.86
2018-09-29T02:36:13.977Z,11.88
2018-09-29T02:36:40.103Z,11.91
2018-09-29T02:37:06.259Z,11.99
2018-09-29T02:37:32.394Z,11.84
2018-09-29T02:37:58.541Z,11.88
2018-09-29T02:38:24.696Z,11.86
2018-09-29T02:38:50.832Z,11.84
2018-09-29T02:39:16.967Z,11.86
2018-09-29T02:39:43.117Z,11.95
2018-09-29T02:40:09.251Z,11.88
2018-09-29T02:40:35.426Z,11.88
2018-09-29T02:41:01.586Z,11.94
2018-09-29T02:41:27.744Z,11.84
2018-09-29T02:41:53.949Z,11.91
2018-09-29T02:42:20.099Z,11.95
2018-09-29T02:42:46.231Z,11.94
2018-09-29T02:43:12.386Z,11.94
2018-09-29T02:43:38.543Z,11.86
2018-09-29T02:44:04.668Z,11.86
2018-09-29T02:44:30.797Z,11.86
2018-09-29T02:44:56.941Z,11.81
2018-09-29T02:45:23.082Z,11.86
2018-09-29T02:45:49.233Z,11.84
2018-09-29T02:46:15.391Z,11.88
2018-09-29T02:46:41.522Z,11.86
2018-09-29T02:47:07.659Z,11.88
2018-09-29T02:47:33.791Z,11.83
2018-09-29T02:47:59.947Z,11.83
2018-09-29T02:48:26.127Z,11.84
2018-09-29T02:48:52.285Z,11.86
2018-09-29T02:49:18.415Z,11.87
2018-09-29T02:49:44.548Z,11.91
2018-09-29T02:50:10.691Z,11.86
2018-09-29T02:50:36.815Z,11.9
2018-09-29T02:51:02.981Z,11.88
2018-09-29T02:51:29.109Z,11.94
2018-09-29T02:51:55.261Z,11.9
2018-09-29T02:52:21.419Z,11.88
2018-09-29T02:52:47.573Z,11.91
2018-09-29T02:53:13.728Z,11.91
2018-09-29T02:53:39.858Z,11.9
2018-09-29T02:54:06.041Z,11.91
2018-09-29T02:54:32.194Z,11.97
2018-09-29T02:54:58.346Z,11.91
2018-09-29T02:55:24.480Z,12.02
2018-09-29T02:55:50.633Z,11.97
2018-09-29T02:56:16.784Z,11.99
2018-09-29T02:56:42.911Z,11.97
2018-09-29T02:57:09.048Z,11.91
2018-09-29T02:57:35.170Z,11.97
2018-09-29T02:58:01.329Z,11.94
2018-09-29T02:58:27.490Z,11.91
2018-09-29T02:58:53.623Z,11.88
2018-09-29T02:59:19.759Z,11.94
2018-09-29T02:59:45.944Z,11.95
2018-09-29T03:00:12.083Z,11.9
2018-09-29T03:00:38.217Z,11.97
2018-09-29T03:01:04.359Z,11.95
2018-09-29T03:01:30.514Z,11.97
2018-09-29T03:01:56.658Z,11.9
2018-09-29T03:02:22.813Z,11.99
2018-09-29T03:02:48.945Z,11.99
2018-09-29T03:03:15.065Z,11.91
2018-09-29T03:03:41.203Z,11.97
2018-09-29T03:04:07.331Z,11.91
2018-09-29T03:04:33.489Z,11.95
2018-09-29T03:04:59.682Z,11.9
2018-09-29T03:05:25.845Z,11.97
2018-09-29T03:05:52.001Z,11.94
2018-09-29T03:06:18.131Z,11.97
2018-09-29T03:06:44.319Z,11.88
2018-09-29T03:07:10.535Z,11.88
2018-09-29T03:07:36.628Z,11.84
2018-09-29T03:08:02.764Z,11.87
2018-09-29T03:08:28.992Z,11.88
2018-09-29T03:08:55.071Z,11.83
2018-09-29T03:09:21.206Z,11.81
2018-09-29T03:09:47.368Z,11.86
2018-09-29T03:10:13.518Z,11.88
2018-09-29T03:10:39.685Z,11.88
2018-09-29T03:11:05.801Z,11.88
2018-09-29T03:11:31.930Z,11.9
2018-09-29T03:11:58.067Z,11.86
2018-09-29T03:12:24.224Z,11.84
2018-09-29T03:12:50.375Z,11.86
2018-09-29T03:13:16.505Z,11.83
2018-09-29T03:13:42.689Z,11.87
2018-09-29T03:14:08.823Z,11.81
2018-09-29T03:14:34.952Z,11.88
2018-09-29T03:15:01.081Z,11.81
2018-09-29T03:15:27.267Z,11.84
2018-09-29T03:15:53.415Z,11.8
2018-09-29T03:16:19.559Z,11.8
2018-09-29T03:16:45.692Z,11.77
2018-09-29T03:17:11.870Z,11.83
2018-09-29T03:17:38.001Z,11.78
2018-09-29T03:18:04.142Z,11.83
2018-09-29T03:18:30.340Z,11.86
2018-09-29T03:18:56.476Z,11.83
2018-09-29T03:19:22.757Z,11.84
2018-09-29T03:19:48.775Z,11.78
2018-09-29T03:20:14.928Z,11.8
2018-09-29T03:20:41.098Z,11.77
2018-09-29T03:21:07.251Z,11.78
2018-09-29T03:21:33.405Z,11.83
2018-09-29T03:21:59.570Z,11.81
2018-09-29T03:22:25.728Z,11.77
2018-09-29T03:22:51.891Z,11.81
2018-09-29T03:23:18.197Z,11.75
2018-09-29T03:23:44.225Z,11.81
2018-09-29T03:24:10.337Z,11.78
2018-09-29T03:24:36.498Z,11.75
2018-09-29T03:25:02.630Z,11.8
2018-09-29T03:25:28.788Z,11.73
2018-09-29T03:25:54.927Z,11.75
2018-09-29T03:26:21.077Z,11.72
2018-09-29T03:26:47.233Z,11.78
2018-09-29T03:27:13.391Z,11.73
2018-09-29T03:27:39.543Z,11.77
2018-09-29T03:28:05.672Z,11.72
2018-09-29T03:28:31.860Z,11.66
2018-09-29T03:28:57.997Z,11.7
2018-09-29T03:29:24.171Z,11.7
2018-09-29T03:29:50.336Z,11.75
2018-09-29T03:30:16.565Z,11.73
2018-09-29T03:30:42.712Z,11.75
2018-09-29T03:31:08.848Z,11.73
2018-09-29T03:31:35.016Z,11.66
2018-09-29T03:32:01.321Z,11.69
2018-09-29T03:32:27.324Z,11.72
2018-09-29T03:32:53.480Z,11.68
2018-09-29T03:33:19.620Z,11.75
2018-09-29T03:33:45.801Z,11.73
2018-09-29T03:34:11.946Z,11.72
2018-09-29T03:34:38.085Z,11.77
2018-09-29T03:35:04.218Z,11.69
2018-09-29T03:35:30.395Z,11.7
2018-09-29T03:35:56.525Z,11.72
2018-09-29T03:36:22.705Z,11.63
2018-09-29T03:36:48.827Z,11.63
2018-09-29T03:37:14.966Z,11.7
2018-09-29T03:37:41.096Z,11.66
2018-09-29T03:38:07.249Z,11.63
2018-09-29T03:38:33.398Z,11.63
2018-09-29T03:38:59.555Z,11.65
2018-09-29T03:39:25.736Z,11.69
2018-09-29T03:39:51.869Z,11.62
2018-09-29T03:40:18.004Z,11.62
2018-09-29T03:40:44.133Z,11.63
2018-09-29T03:41:10.263Z,11.66
2018-09-29T03:41:36.427Z,11.65
2018-09-29T03:42:02.590Z,11.66
2018-09-29T03:42:28.714Z,11.62
2018-09-29T03:42:54.852Z,11.63
2018-09-29T03:43:20.978Z,11.63
2018-09-29T03:43:47.118Z,11.66
2018-09-29T03:44:13.296Z,11.65
2018-09-29T03:44:39.480Z,11.62
2018-09-29T03:45:05.656Z,11.69
2018-09-29T03:45:31.802Z,11.62
2018-09-29T03:45:57.956Z,11.68
2018-09-29T03:46:24.094Z,11.73
2018-09-29T03:46:50.265Z,11.7
2018-09-29T03:47:16.447Z,11.63
2018-09-29T03:47:42.579Z,11.65
2018-09-29T03:48:08.770Z,11.63
2018-09-29T03:48:34.895Z,11.63
2018-09-29T03:49:01.027Z,11.68
2018-09-29T03:49:27.159Z,11.72
2018-09-29T03:49:53.318Z,11.69
2018-09-29T03:50:19.473Z,11.66
2018-09-29T03:50:45.599Z,11.78
2018-09-29T03:51:11.754Z,11.69
2018-09-29T03:51:37.928Z,11.69
2018-09-29T03:52:04.071Z,11.75
2018-09-29T03:52:30.216Z,11.72
2018-09-29T03:52:56.344Z,11.7
2018-09-29T03:53:22.539Z,11.72
2018-09-29T03:53:48.654Z,11.66
2018-09-29T03:54:14.852Z,11.63
2018-09-29T03:54:41.007Z,11.69
2018-09-29T03:55:07.173Z,11.62
2018-09-29T03:55:33.328Z,11.62
2018-09-29T03:55:59.466Z,11.73
2018-09-29T03:56:25.594Z,11.65
2018-09-29T03:56:51.770Z,11.7
2018-09-29T03:57:17.924Z,11.75
2018-09-29T03:57:44.082Z,11.77
2018-09-29T03:58:10.257Z,11.68
2018-09-29T03:58:36.408Z,11.68
2018-09-29T03:59:02.541Z,11.59
2018-09-29T03:59:28.673Z,11.62
2018-09-29T03:59:54.826Z,11.68
2018-09-29T04:00:20.962Z,11.66
2018-09-29T04:00:47.135Z,11.63
2018-09-29T04:01:13.293Z,11.69
2018-09-29T04:01:39.426Z,11.68
2018-09-29T04:02:05.605Z,11.65
2018-09-29T04:02:31.756Z,11.63
2018-09-29T04:02:57.936Z,11.7
2018-09-29T04:03:24.076Z,11.69
2018-09-29T04:03:50.204Z,11.68
2018-09-29T04:04:16.358Z,11.7
2018-09-29T04:04:42.542Z,11.68
2018-09-29T04:05:08.725Z,11.69
2018-09-29T04:05:34.881Z,11.59
2018-09-29T04:06:01.018Z,11.63
2018-09-29T04:06:27.174Z,11.68
2018-09-29T04:06:53.308Z,11.69
2018-09-29T04:07:19.445Z,11.59
2018-09-29T04:07:45.593Z,11.6
2018-09-29T04:08:11.756Z,11.6
2018-09-29T04:08:37.894Z,11.68
2018-09-29T04:09:04.045Z,11.51
2018-09-29T04:09:30.200Z,11.55
2018-09-29T04:09:56.325Z,11.6
2018-09-29T04:10:22.464Z,11.57
2018-09-29T04:10:48.597Z,11.57
2018-09-29T04:11:14.748Z,11.59
2018-09-29T04:11:40.874Z,11.55
2018-09-29T04:12:07.008Z,11.6
2018-09-29T04:12:33.141Z,11.62
2018-09-29T04:12:59.301Z,11.6
2018-09-29T04:13:25.482Z,11.63
2018-09-29T04:13:51.620Z,11.55
2018-09-29T04:14:17.746Z,11.55
2018-09-29T04:14:43.907Z,11.6
2018-09-29T04:15:10.040Z,11.59
2018-09-29T04:15:36.175Z,11.69
2018-09-29T04:16:02.358Z,11.54
2018-09-29T04:16:28.537Z,11.62
2018-09-29T04:16:54.722Z,11.72
2018-09-29T04:17:20.896Z,11.63
2018-09-29T04:17:47.025Z,11.62
2018-09-29T04:18:13.156Z,11.66
2018-09-29T04:18:39.299Z,11.6
2018-09-29T04:19:05.469Z,11.57
2018-09-29T04:19:31.630Z,11.69
2018-09-29T04:19:57.761Z,11.59
2018-09-29T04:20:23.898Z,11.68
2018-09-29T04:20:50.052Z,11.62
2018-09-29T04:21:16.188Z,11.6
2018-09-29T04:21:42.320Z,11.59
2018-09-29T04:22:08.450Z,11.6
2018-09-29T04:22:34.591Z,11.65
2018-09-29T04:23:00.718Z,11.63
2018-09-29T04:23:26.860Z,11.59
2018-09-29T04:23:52.988Z,11.55
2018-09-29T04:24:19.118Z,11.6
2018-09-29T04:24:45.272Z,11.57
2018-09-29T04:25:11.400Z,11.59
2018-09-29T04:25:37.535Z,11.57
2018-09-29T04:26:03.690Z,11.57
2018-09-29T04:26:29.820Z,11.65
2018-09-29T04:26:55.993Z,11.6
2018-09-29T04:27:22.125Z,11.57
2018-09-29T04:27:48.260Z,11.55
2018-09-29T04:28:14.421Z,11.5
2018-09-29T04:28:40.555Z,11.52
2018-09-29T04:29:06.691Z,11.5
2018-09-29T04:29:32.817Z,11.51
2018-09-29T04:29:58.988Z,11.59
2018-09-29T04:30:25.105Z,11.62
2018-09-29T04:30:51.253Z,11.59
2018-09-29T04:31:17.362Z,11.57
2018-09-29T04:31:43.513Z,11.54
2018-09-29T04:32:09.637Z,11.51
2018-09-29T04:32:35.767Z,11.55
2018-09-29T04:33:01.900Z,11.51
2018-09-29T04:33:28.033Z,11.51
2018-09-29T04:33:54.164Z,11.5
2018-09-29T04:34:20.318Z,11.52
2018-09-29T04:34:46.506Z,11.5
2018-09-29T04:35:12.641Z,11.52
2018-09-29T04:35:38.773Z,11.44
2018-09-29T04:36:04.907Z,11.37
2018-09-29T04:36:31.038Z,11.45
2018-09-29T04:36:57.172Z,11.41
2018-09-29T04:37:23.353Z,11.44
2018-09-29T04:37:49.493Z,11.36
2018-09-29T04:38:15.671Z,11.32
2018-09-29T04:38:41.796Z,11.3
2018-09-29T04:39:07.927Z,11.29
2018-09-29T04:39:34.058Z,11.3
2018-09-29T04:40:00.190Z,11.22
2018-09-29T04:40:26.328Z,11.23
2018-09-29T04:40:52.480Z,11.17
2018-09-29T04:41:18.634Z,11.15
2018-09-29T04:41:44.759Z,11.12
2018-09-29T04:42:10.893Z,11.18
2018-09-29T04:42:37.024Z,11.17
2018-09-29T04:43:03.169Z,11.14
2018-09-29T04:43:29.284Z,11.22
2018-09-29T04:43:55.425Z,11.23
2018-09-29T04:44:21.554Z,11.15
2018-09-29T04:44:47.715Z,11.25
2018-09-29T04:45:13.872Z,11.27
2018-09-29T04:45:40.002Z,11.23
2018-09-29T04:46:06.131Z,11.27
2018-09-29T04:46:32.271Z,11.3
2018-09-29T04:46:58.429Z,11.25
2018-09-29T04:47:24.559Z,11.17
2018-09-29T04:47:50.689Z,11.22
2018-09-29T04:48:16.843Z,11.27
2018-09-29T04:48:42.977Z,11.29
2018-09-29T04:49:09.153Z,11.19
2018-09-29T04:49:35.251Z,11.23
2018-09-29T04:50:01.383Z,11.22
2018-09-29T04:50:27.561Z,11.25
2018-09-29T04:50:53.711Z,11.22
2018-09-29T04:51:19.847Z,11.14
2018-09-29T04:51:45.980Z,11.18
2018-09-29T04:52:12.113Z,11.18
2018-09-29T04:52:38.248Z,11.26
2018-09-29T04:53:04.400Z,11.23
2018-09-29T04:53:30.533Z,11.22
2018-09-29T04:53:56.687Z,11.19
2018-09-29T04:54:22.818Z,11.23
2018-09-29T04:54:48.974Z,11.22
2018-09-29T04:55:15.106Z,11.19
2018-09-29T04:55:41.238Z,11.22
2018-09-29T04:56:07.373Z,11.19
2018-09-29T04:56:33.511Z,11.25
2018-09-29T04:56:59.662Z,11.17
2018-09-29T04:57:25.795Z,11.23
2018-09-29T04:57:51.955Z,11.25
2018-09-29T04:58:18.085Z,11.26
2018-09-29T04:58:44.246Z,11.26
2018-09-29T04:59:10.377Z,11.23
2018-09-29T04:59:36.555Z,11.22
2018-09-29T05:00:02.708Z,11.27
2018-09-29T05:00:28.869Z,11.22
2018-09-29T05:00:55.003Z,11.25
2018-09-29T05:01:21.138Z,11.23
2018-09-29T05:01:47.267Z,11.3
2018-09-29T05:02:13.401Z,11.27
2018-09-29T05:02:39.535Z,11.27
2018-09-29T05:03:05.666Z,11.25
2018-09-29T05:03:31.815Z,11.32
2018-09-29T05:03:57.973Z,11.26
2018-09-29T05:04:24.107Z,11.26
2018-09-29T05:04:50.263Z,11.25
2018-09-29T05:05:16.399Z,11.25
2018-09-29T05:05:42.530Z,11.26
2018-09-29T05:06:08.658Z,11.19
2018-09-29T05:06:34.921Z,11.22
2018-09-29T05:07:00.956Z,11.14
2018-09-29T05:07:27.088Z,11.18
2018-09-29T05:07:53.227Z,11.22
2018-09-29T05:08:19.356Z,11.15
2018-09-29T05:08:45.487Z,11.18
2018-09-29T05:09:11.611Z,11.02
2018-09-29T05:09:37.768Z,11.11
2018-09-29T05:10:03.920Z,11.07
2018-09-29T05:10:30.055Z,11.23
2018-09-29T05:10:56.193Z,11.17
2018-09-29T05:11:22.341Z,11.19
2018-09-29T05:11:48.465Z,11.18
2018-09-29T05:12:14.620Z,11.27
2018-09-29T05:12:40.753Z,11.18
2018-09-29T05:13:06.883Z,11.15
2018-09-29T05:13:33.043Z,11.14
2018-09-29T05:13:59.199Z,11.27
2018-09-29T05:14:25.300Z,11.25
2018-09-29T05:14:51.462Z,11.26
2018-09-29T05:15:17.617Z,11.29
2018-09-29T05:15:43.753Z,11.25
2018-09-29T05:16:09.887Z,11.23
2018-09-29T05:16:36.016Z,11.22
2018-09-29T05:17:02.181Z,11.36
2018-09-29T05:17:28.341Z,11.26
2018-09-29T05:17:54.487Z,11.36
2018-09-29T05:18:20.631Z,11.32
2018-09-29T05:18:46.784Z,11.32
2018-09-29T05:19:12.922Z,11.3
2018-09-29T05:19:39.047Z,11.37
2018-09-29T05:20:05.184Z,11.29
2018-09-29T05:20:31.317Z,11.26
2018-09-29T05:20:57.453Z,11.26
2018-09-29T05:21:23.582Z,11.29
2018-09-29T05:21:49.718Z,11.27
2018-09-29T05:22:15.850Z,11.29
2018-09-29T05:22:41.983Z,11.25
2018-09-29T05:23:08.124Z,11.35
2018-09-29T05:23:34.245Z,11.32
2018-09-29T05:24:00.370Z,11.25
2018-09-29T05:24:26.513Z,11.35
2018-09-29T05:24:52.681Z,11.3
2018-09-29T05:25:18.821Z,11.26
2018-09-29T05:25:44.977Z,11.26
2018-09-29T05:26:11.111Z,11.32
2018-09-29T05:26:37.237Z,11.3
2018-09-29T05:27:03.369Z,11.33
2018-09-29T05:27:29.521Z,11.33
2018-09-29T05:27:55.679Z,11.32
2018-09-29T05:28:21.814Z,11.37
2018-09-29T05:28:47.949Z,11.41
2018-09-29T05:29:14.075Z,11.41
2018-09-29T05:29:40.237Z,11.41
2018-09-29T05:30:06.446Z,11.37
2018-09-29T05:30:32.578Z,11.4
2018-09-29T05:30:58.834Z,11.4
2018-09-29T05:31:24.888Z,11.3
2018-09-29T05:31:51.043Z,11.3
2018-09-29T05:32:17.174Z,11.26
2018-09-29T05:32:43.324Z,11.15
2018-09-29T05:33:09.465Z,11.17
2018-09-29T05:33:35.624Z,11.17
2018-09-29T05:34:01.761Z,11.15
2018-09-29T05:34:27.892Z,11.15
2018-09-29T05:34:54.017Z,11.22
2018-09-29T05:35:20.157Z,11.3
2018-09-29T05:35:46.287Z,11.26
2018-09-29T05:36:12.419Z,11.22
2018-09-29T05:36:38.553Z,11.26
2018-09-29T05:37:04.686Z,11.29
2018-09-29T05:37:30.817Z,11.23
2018-09-29T05:37:56.949Z,11.29
2018-09-29T05:38:23.130Z,11.23